Goodyear, Arizona
Current Conditions -  °F | °C
As of 4:47 PM on Tuesday 25 Nov 2014 (Local Time) from KGYR Reporting Station
Clear Clear  
Wind Chill: 66°   Ceiling: Unl
Heat Index: 66°   Visibility: 10mi
Dew Point:   Wind: 6mph
Humidity: 11%   Direction: NA
Pressure: 30.3"   Gusts: NA
Location:  33.44°N, 112.35°W
Report Text: KGYR 252347Z VRB05KT 10SM SKC 19/M13 A3030
Loading
Personal Weather Stations






























Interactive Weather Map New forecast layout! Learn more

10-Day Weather Forecast

Advertisements
Track Severe Weather on mobile